sensor_id;sensor_type;location;lat;lon;timestamp;pressure;altitude;pressure_sealevel;temperature;humidity
72548;BME280;60570;50.848;6.776;2023-07-22T00:00:37;100381.59;;;20.33;49.55
72548;BME280;60570;50.848;6.776;2023-07-22T00:01:38;100376.38;;;20.31;49.37
72548;BME280;60570;50.848;6.776;2023-07-22T00:02:39;100369.91;;;20.31;49.65
72548;BME280;60570;50.848;6.776;2023-07-22T00:03:40;100372.75;;;20.31;49.48
72548;BME280;60570;50.848;6.776;2023-07-22T00:04:41;100367.91;;;20.31;49.53
72548;BME280;60570;50.848;6.776;2023-07-22T00:05:41;100385.25;;;20.30;49.55
72548;BME280;60570;50.848;6.776;2023-07-22T00:06:43;100380.41;;;20.30;49.42
72548;BME280;60570;50.848;6.776;2023-07-22T00:07:44;100384.44;;;20.29;49.66
72548;BME280;60570;50.848;6.776;2023-07-22T00:08:45;100383.63;;;20.29;49.46
72548;BME280;60570;50.848;6.776;2023-07-22T00:09:46;100385.66;;;20.28;49.34
72548;BME280;60570;50.848;6.776;2023-07-22T00:10:49;100381.63;;;20.29;49.48
72548;BME280;60570;50.848;6.776;2023-07-22T00:11:49;100384.84;;;20.28;49.49
72548;BME280;60570;50.848;6.776;2023-07-22T00:12:51;100377.56;;;20.27;49.38
72548;BME280;60570;50.848;6.776;2023-07-22T00:13:51;100386.84;;;20.27;49.38
72548;BME280;60570;50.848;6.776;2023-07-22T00:14:54;100379.63;;;20.26;49.61
72548;BME280;60570;50.848;6.776;2023-07-22T00:15:55;100386.84;;;20.27;49.44
72548;BME280;60570;50.848;6.776;2023-07-22T00:16:57;100380.81;;;20.25;49.45
72548;BME280;60570;50.848;6.776;2023-07-22T00:17:57;100376.41;;;20.24;49.53
72548;BME280;60570;50.848;6.776;2023-07-22T00:18:58;100379.22;;;20.24;49.57
72548;BME280;60570;50.848;6.776;2023-07-22T00:19:59;100387.28;;;20.22;49.51
72548;BME280;60570;50.848;6.776;2023-07-22T00:21:00;100382.81;;;20.21;49.66
72548;BME280;60570;50.848;6.776;2023-07-22T00:22:01;100387.66;;;20.21;49.54
72548;BME280;60570;50.848;6.776;2023-07-22T00:23:02;100389.69;;;20.20;49.73
72548;BME280;60570;50.848;6.776;2023-07-22T00:24:04;100383.22;;;20.20;49.72
72548;BME280;60570;50.848;6.776;2023-07-22T00:25:06;100382.41;;;20.19;49.74
72548;BME280;60570;50.848;6.776;2023-07-22T00:26:08;100384.44;;;20.19;49.56
72548;BME280;60570;50.848;6.776;2023-07-22T00:27:09;100383.22;;;20.20;49.72
72548;BME280;60570;50.848;6.776;2023-07-22T00:28:10;100384.44;;;20.19;49.62
72548;BME280;60570;50.848;6.776;2023-07-22T00:29:11;100387.25;;;20.19;49.62
72548;BME280;60570;50.848;6.776;2023-07-22T00:30:14;100372.72;;;20.17;49.73
72548;BME280;60570;50.848;6.776;2023-07-22T00:31:14;100377.56;;;20.16;49.66
72548;BME280;60570;50.848;6.776;2023-07-22T00:32:16;100379.56;;;20.16;49.84
72548;BME280;60570;50.848;6.776;2023-07-22T00:33:17;100381.59;;;20.15;49.68
72548;BME280;60570;50.848;6.776;2023-07-22T00:34:19;100382.00;;;20.14;49.63
72548;BME280;60570;50.848;6.776;2023-07-22T00:35:19;100385.22;;;20.12;49.78
72548;BME280;60570;50.848;6.776;2023-07-22T00:36:21;100381.19;;;20.13;49.86
72548;BME280;60570;50.848;6.776;2023-07-22T00:37:22;100383.22;;;20.13;49.79
72548;BME280;60570;50.848;6.776;2023-07-22T00:38:23;100385.22;;;20.12;49.79
72548;BME280;60570;50.848;6.776;2023-07-22T00:39:24;100380.00;;;20.11;49.73
72548;BME280;60570;50.848;6.776;2023-07-22T00:40:25;100381.59;;;20.12;49.72
72548;BME280;60570;50.848;6.776;2023-07-22T00:41:26;100386.41;;;20.11;49.84
72548;BME280;60570;50.848;6.776;2023-07-22T00:42:27;100378.38;;;20.10;49.64
72548;BME280;60570;50.848;6.776;2023-07-22T00:43:28;100376.78;;;20.09;49.88
72548;BME280;60570;50.848;6.776;2023-07-22T00:44:29;100379.19;;;20.07;49.74
72548;BME280;60570;50.848;6.776;2023-07-22T00:45:31;100375.53;;;20.06;49.77
72548;BME280;60570;50.848;6.776;2023-07-22T00:46:32;100374.72;;;20.06;49.87
72548;BME280;60570;50.848;6.776;2023-07-22T00:47:33;100375.97;;;20.05;49.85
72548;BME280;60570;50.848;6.776;2023-07-22T00:48:35;100376.75;;;20.05;49.85
72548;BME280;60570;50.848;6.776;2023-07-22T00:49:36;100378.38;;;20.03;49.85
72548;BME280;60570;50.848;6.776;2023-07-22T00:50:38;100379.56;;;20.02;49.77
72548;BME280;60570;50.848;6.776;2023-07-22T00:51:39;100380.38;;;20.02;50.08
72548;BME280;60570;50.848;6.776;2023-07-22T00:52:39;100384.00;;;20.03;49.86
72548;BME280;60570;50.848;6.776;2023-07-22T00:53:41;100386.84;;;20.03;49.92
72548;BME280;60570;50.848;6.776;2023-07-22T00:54:41;100382.38;;;20.02;49.77
72548;BME280;60570;50.848;6.776;2023-07-22T00:55:43;100373.53;;;20.00;49.94
72548;BME280;60570;50.848;6.776;2023-07-22T00:56:45;100382.78;;;20.00;49.91
72548;BME280;60570;50.848;6.776;2023-07-22T00:57:48;100377.56;;;19.99;50.10
72548;BME280;60570;50.848;6.776;2023-07-22T00:58:49;100379.56;;;19.98;50.02
72548;BME280;60570;50.848;6.776;2023-07-22T00:59:50;100378.75;;;19.98;50.09
72548;BME280;60570;50.848;6.776;2023-07-22T01:00:52;100387.22;;;19.98;50.01
72548;BME280;60570;50.848;6.776;2023-07-22T01:01:54;100380.78;;;19.97;49.87
72548;BME280;60570;50.848;6.776;2023-07-22T01:02:54;100380.38;;;19.95;49.88
72548;BME280;60570;50.848;6.776;2023-07-22T01:03:56;100376.75;;;19.95;49.90
72548;BME280;60570;50.848;6.776;2023-07-22T01:04:56;100381.59;;;19.94;49.89
72548;BME280;60570;50.848;6.776;2023-07-22T01:05:58;100373.13;;;19.94;49.80
72548;BME280;60570;50.848;6.776;2023-07-22T01:07:00;100374.34;;;19.93;49.70
72548;BME280;60570;50.848;6.776;2023-07-22T01:08:04;100378.34;;;19.92;50.01
72548;BME280;60570;50.848;6.776;2023-07-22T01:09:05;100376.34;;;19.93;49.86
72548;BME280;60570;50.848;6.776;2023-07-22T01:10:07;100374.72;;;19.92;50.10
72548;BME280;60570;50.848;6.776;2023-07-22T01:11:09;100369.06;;;19.92;49.99
72548;BME280;60570;50.848;6.776;2023-07-22T01:12:10;100370.72;;;19.93;49.90
72548;BME280;60570;50.848;6.776;2023-07-22T01:13:11;100365.47;;;19.91;49.85
72548;BME280;60570;50.848;6.776;2023-07-22T01:14:12;100363.84;;;19.90;49.99
72548;BME280;60570;50.848;6.776;2023-07-22T01:15:14;100370.31;;;19.91;50.00
72548;BME280;60570;50.848;6.776;2023-07-22T01:16:15;100366.66;;;19.90;49.84
72548;BME280;60570;50.848;6.776;2023-07-22T01:17:17;100370.72;;;19.89;49.96
72548;BME280;60570;50.848;6.776;2023-07-22T01:18:19;100366.25;;;19.88;50.07
72548;BME280;60570;50.848;6.776;2023-07-22T01:19:21;100371.13;;;19.88;49.90
72548;BME280;60570;50.848;6.776;2023-07-22T01:20:22;100366.66;;;19.87;49.88
72548;BME280;60570;50.848;6.776;2023-07-22T01:21:24;100366.25;;;19.85;50.13
72548;BME280;60570;50.848;6.776;2023-07-22T01:22:25;100366.69;;;19.83;49.96
72548;BME280;60570;50.848;6.776;2023-07-22T01:23:29;100371.09;;;19.84;50.00
72548;BME280;60570;50.848;6.776;2023-07-22T01:24:29;100361.84;;;19.84;50.14
72548;BME280;60570;50.848;6.776;2023-07-22T01:25:31;100365.88;;;19.83;50.09
72548;BME280;60570;50.848;6.776;2023-07-22T01:26:31;100363.44;;;19.81;50.02
72548;BME280;60570;50.848;6.776;2023-07-22T01:27:33;100355.00;;;19.81;49.96
72548;BME280;60570;50.848;6.776;2023-07-22T01:28:34;100359.81;;;19.81;50.13
72548;BME280;60570;50.848;6.776;2023-07-22T01:29:36;100367.88;;;19.79;50.21
72548;BME280;60570;50.848;6.776;2023-07-22T01:30:37;100365.88;;;19.79;50.09
72548;BME280;60570;50.848;6.776;2023-07-22T01:31:38;100362.22;;;19.79;50.20
72548;BME280;60570;50.848;6.776;2023-07-22T01:32:39;100358.22;;;19.80;50.02
72548;BME280;60570;50.848;6.776;2023-07-22T01:33:41;100363.84;;;19.80;49.88
72548;BME280;60570;50.848;6.776;2023-07-22T01:34:41;100366.69;;;19.80;50.25
72548;BME280;60570;50.848;6.776;2023-07-22T01:35:43;100370.69;;;19.79;50.07
72548;BME280;60570;50.848;6.776;2023-07-22T01:36:44;100370.69;;;19.79;50.08
72548;BME280;60570;50.848;6.776;2023-07-22T01:37:46;100371.09;;;19.77;49.96
72548;BME280;60570;50.848;6.776;2023-07-22T01:38:48;100365.47;;;19.77;50.02
72548;BME280;60570;50.848;6.776;2023-07-22T01:39:49;100363.81;;;19.76;50.13
72548;BME280;60570;50.848;6.776;2023-07-22T01:40:50;100369.88;;;19.75;50.16
72548;BME280;60570;50.848;6.776;2023-07-22T01:41:52;100370.28;;;19.77;50.13
72548;BME280;60570;50.848;6.776;2023-07-22T01:42:53;100369.47;;;19.76;50.03
72548;BME280;60570;50.848;6.776;2023-07-22T01:43:54;100367.88;;;19.75;50.04
72548;BME280;60570;50.848;6.776;2023-07-22T01:44:55;100363.41;;;19.74;49.99
72548;BME280;60570;50.848;6.776;2023-07-22T01:45:56;100354.19;;;19.74;50.15
72548;BME280;60570;50.848;6.776;2023-07-22T01:46:57;100359.00;;;19.73;50.26
72548;BME280;60570;50.848;6.776;2023-07-22T01:47:58;100359.00;;;19.73;50.21
72548;BME280;60570;50.848;6.776;2023-07-22T01:48:59;100358.19;;;19.73;50.24
72548;BME280;60570;50.848;6.776;2023-07-22T01:50:01;100352.16;;;19.71;49.96
72548;BME280;60570;50.848;6.776;2023-07-22T01:51:02;100357.78;;;19.71;50.05
72548;BME280;60570;50.848;6.776;2023-07-22T01:52:05;100353.78;;;19.72;50.02
72548;BME280;60570;50.848;6.776;2023-07-22T01:53:06;100357.78;;;19.71;50.25
72548;BME280;60570;50.848;6.776;2023-07-22T01:54:09;100355.38;;;19.69;50.09
72548;BME280;60570;50.848;6.776;2023-07-22T01:55:10;100353.78;;;19.68;50.21
72548;BME280;60570;50.848;6.776;2023-07-22T01:56:11;100350.16;;;19.67;50.21
72548;BME280;60570;50.848;6.776;2023-07-22T01:57:12;100348.13;;;19.68;50.03
72548;BME280;60570;50.848;6.776;2023-07-22T01:58:13;100348.50;;;19.66;50.02
72548;BME280;60570;50.848;6.776;2023-07-22T01:59:14;100354.97;;;19.67;50.14
72548;BME280;60570;50.848;6.776;2023-07-22T02:00:15;100352.16;;;19.67;50.09
72548;BME280;60570;50.848;6.776;2023-07-22T02:01:16;100358.19;;;19.65;50.11
72548;BME280;60570;50.848;6.776;2023-07-22T02:02:18;100345.28;;;19.64;50.39
72548;BME280;60570;50.848;6.776;2023-07-22T02:03:18;100347.31;;;19.64;50.06
72548;BME280;60570;50.848;6.776;2023-07-22T02:04:20;100354.97;;;19.63;50.46
72548;BME280;60570;50.848;6.776;2023-07-22T02:05:21;100347.69;;;19.62;50.38
72548;BME280;60570;50.848;6.776;2023-07-22T02:06:22;100348.94;;;19.61;50.26
72548;BME280;60570;50.848;6.776;2023-07-22T02:07:23;100351.75;;;19.61;50.22
72548;BME280;60570;50.848;6.776;2023-07-22T02:08:26;100352.16;;;19.60;50.18
72548;BME280;60570;50.848;6.776;2023-07-22T02:09:28;100349.75;;;19.58;50.15
72548;BME280;60570;50.848;6.776;2023-07-22T02:10:29;100351.34;;;19.59;50.09
72548;BME280;60570;50.848;6.776;2023-07-22T02:11:30;100348.13;;;19.57;50.42
72548;BME280;60570;50.848;6.776;2023-07-22T02:12:31;100350.94;;;19.57;50.28
72548;BME280;60570;50.848;6.776;2023-07-22T02:13:32;100352.16;;;19.56;50.30
72548;BME280;60570;50.848;6.776;2023-07-22T02:14:34;100352.53;;;19.55;50.34
72548;BME280;60570;50.848;6.776;2023-07-22T02:15:34;100345.28;;;19.54;50.33
72548;BME280;60570;50.848;6.776;2023-07-22T02:16:36;100348.13;;;19.54;50.38
72548;BME280;60570;50.848;6.776;2023-07-22T02:17:36;100350.94;;;19.54;50.20
72548;BME280;60570;50.848;6.776;2023-07-22T02:18:37;100349.31;;;19.53;50.38
72548;BME280;60570;50.848;6.776;2023-07-22T02:19:39;100351.34;;;19.52;50.22
72548;BME280;60570;50.848;6.776;2023-07-22T02:20:42;100344.06;;;19.51;50.35
72548;BME280;60570;50.848;6.776;2023-07-22T02:21:43;100342.88;;;19.52;50.26
72548;BME280;60570;50.848;6.776;2023-07-22T02:22:44;100341.25;;;19.51;50.24
72548;BME280;60570;50.848;6.776;2023-07-22T02:23:45;100335.63;;;19.51;50.44
72548;BME280;60570;50.848;6.776;2023-07-22T02:24:47;100338.44;;;19.51;50.34
72548;BME280;60570;50.848;6.776;2023-07-22T02:25:48;100334.03;;;19.50;50.32
72548;BME280;60570;50.848;6.776;2023-07-22T02:26:49;100342.84;;;19.49;50.24
72548;BME280;60570;50.848;6.776;2023-07-22T02:27:51;100335.22;;;19.49;50.32
72548;BME280;60570;50.848;6.776;2023-07-22T02:28:51;100339.25;;;19.48;50.37
72548;BME280;60570;50.848;6.776;2023-07-22T02:29:53;100337.63;;;19.47;50.21
72548;BME280;60570;50.848;6.776;2023-07-22T02:30:53;100346.06;;;19.47;50.10
72548;BME280;60570;50.848;6.776;2023-07-22T02:31:55;100336.03;;;19.46;50.29
72548;BME280;60570;50.848;6.776;2023-07-22T02:32:55;100332.38;;;19.46;50.33
72548;BME280;60570;50.848;6.776;2023-07-22T02:33:57;100341.66;;;19.46;50.27
72548;BME280;60570;50.848;6.776;2023-07-22T02:34:57;100338.03;;;19.46;50.30
72548;BME280;60570;50.848;6.776;2023-07-22T02:35:59;100334.38;;;19.45;50.22
72548;BME280;60570;50.848;6.776;2023-07-22T02:36:59;100339.25;;;19.45;50.34
72548;BME280;60570;50.848;6.776;2023-07-22T02:38:01;100344.88;;;19.45;50.30
72548;BME280;60570;50.848;6.776;2023-07-22T02:39:02;100339.63;;;19.43;50.26
72548;BME280;60570;50.848;6.776;2023-07-22T02:40:06;100340.84;;;19.42;50.25
72548;BME280;60570;50.848;6.776;2023-07-22T02:41:07;100349.28;;;19.42;50.30
72548;BME280;60570;50.848;6.776;2023-07-22T02:42:09;100343.25;;;19.40;50.18
72548;BME280;60570;50.848;6.776;2023-07-22T02:43:09;100341.63;;;19.39;50.24
72548;BME280;60570;50.848;6.776;2023-07-22T02:44:11;100339.22;;;19.38;50.42
72548;BME280;60570;50.848;6.776;2023-07-22T02:45:12;100342.84;;;19.38;50.36
72548;BME280;60570;50.848;6.776;2023-07-22T02:46:14;100342.84;;;19.38;50.38
72548;BME280;60570;50.848;6.776;2023-07-22T02:47:14;100340.03;;;19.38;50.24
72548;BME280;60570;50.848;6.776;2023-07-22T02:48:15;100344.03;;;19.37;50.30
72548;BME280;60570;50.848;6.776;2023-07-22T02:49:16;100346.06;;;19.37;50.46
72548;BME280;60570;50.848;6.776;2023-07-22T02:50:17;100346.06;;;19.37;50.36
72548;BME280;60570;50.848;6.776;2023-07-22T02:51:17;100345.66;;;19.35;50.17
72548;BME280;60570;50.848;6.776;2023-07-22T02:52:19;100350.47;;;19.34;50.36
72548;BME280;60570;50.848;6.776;2023-07-22T02:53:19;100346.84;;;19.34;50.19
72548;BME280;60570;50.848;6.776;2023-07-22T02:54:20;100345.25;;;19.33;50.49
72548;BME280;60570;50.848;6.776;2023-07-22T02:55:23;100346.03;;;19.33;50.33
72548;BME280;60570;50.848;6.776;2023-07-22T02:56:23;100346.03;;;19.33;50.39
72548;BME280;60570;50.848;6.776;2023-07-22T02:57:25;100342.44;;;19.33;50.40
72548;BME280;60570;50.848;6.776;2023-07-22T02:58:25;100339.16;;;19.31;50.52
72548;BME280;60570;50.848;6.776;2023-07-22T02:59:26;100343.19;;;19.30;50.49
72548;BME280;60570;50.848;6.776;2023-07-22T03:00:27;100341.19;;;19.30;50.54
72548;BME280;60570;50.848;6.776;2023-07-22T03:01:28;100348.03;;;19.29;50.34
72548;BME280;60570;50.848;6.776;2023-07-22T03:02:29;100340.38;;;19.30;50.44
72548;BME280;60570;50.848;6.776;2023-07-22T03:03:30;100358.47;;;19.29;50.28
72548;BME280;60570;50.848;6.776;2023-07-22T03:04:33;100348.03;;;19.29;50.37
72548;BME280;60570;50.848;6.776;2023-07-22T03:05:33;100342.00;;;19.27;50.25
72548;BME280;60570;50.848;6.776;2023-07-22T03:06:35;100349.22;;;19.28;50.26
72548;BME280;60570;50.848;6.776;2023-07-22T03:07:35;100346.81;;;19.27;50.35
72548;BME280;60570;50.848;6.776;2023-07-22T03:08:36;100344.00;;;19.27;50.38
72548;BME280;60570;50.848;6.776;2023-07-22T03:09:37;100341.16;;;19.27;50.41
72548;BME280;60570;50.848;6.776;2023-07-22T03:10:39;100346.41;;;19.25;50.21
72548;BME280;60570;50.848;6.776;2023-07-22T03:11:41;100348.41;;;19.24;50.41
72548;BME280;60570;50.848;6.776;2023-07-22T03:12:41;100341.16;;;19.23;50.51
72548;BME280;60570;50.848;6.776;2023-07-22T03:13:43;100337.53;;;19.23;50.39
72548;BME280;60570;50.848;6.776;2023-07-22T03:14:43;100345.56;;;19.21;50.25
72548;BME280;60570;50.848;6.776;2023-07-22T03:15:45;100348.41;;;19.21;50.42
72548;BME280;60570;50.848;6.776;2023-07-22T03:16:46;100346.41;;;19.21;50.41
72548;BME280;60570;50.848;6.776;2023-07-22T03:17:48;100339.94;;;19.21;50.33
72548;BME280;60570;50.848;6.776;2023-07-22T03:18:49;100348.41;;;19.21;50.37
72548;BME280;60570;50.848;6.776;2023-07-22T03:19:49;100343.16;;;19.19;50.29
72548;BME280;60570;50.848;6.776;2023-07-22T03:20:51;100353.63;;;19.19;50.36
72548;BME280;60570;50.848;6.776;2023-07-22T03:21:52;100347.97;;;19.19;50.41
72548;BME280;60570;50.848;6.776;2023-07-22T03:22:53;100348.38;;;19.17;50.26
72548;BME280;60570;50.848;6.776;2023-07-22T03:23:54;100342.75;;;19.17;50.36
72548;BME280;60570;50.848;6.776;2023-07-22T03:24:56;100346.34;;;19.18;50.44
72548;BME280;60570;50.848;6.776;2023-07-22T03:25:58;100337.53;;;19.16;50.38
72548;BME280;60570;50.848;6.776;2023-07-22T03:26:59;100348.78;;;19.16;50.47
72548;BME280;60570;50.848;6.776;2023-07-22T03:28:00;100347.16;;;19.15;50.43
72548;BME280;60570;50.848;6.776;2023-07-22T03:29:03;100337.91;;;19.14;50.39
72548;BME280;60570;50.848;6.776;2023-07-22T03:30:05;100344.34;;;19.15;50.43
72548;BME280;60570;50.848;6.776;2023-07-22T03:31:08;100344.34;;;19.15;50.37
72548;BME280;60570;50.848;6.776;2023-07-22T03:32:09;100349.56;;;19.13;50.53
72548;BME280;60570;50.848;6.776;2023-07-22T03:33:10;100346.75;;;19.13;50.40
72548;BME280;60570;50.848;6.776;2023-07-22T03:34:11;100338.72;;;19.11;50.64
72548;BME280;60570;50.848;6.776;2023-07-22T03:35:12;100339.53;;;19.12;50.48
72548;BME280;60570;50.848;6.776;2023-07-22T03:36:13;100344.34;;;19.11;50.43
72548;BME280;60570;50.848;6.776;2023-07-22T03:37:14;100345.53;;;19.10;50.35
72548;BME280;60570;50.848;6.776;2023-07-22T03:38:16;100339.91;;;19.10;50.38
72548;BME280;60570;50.848;6.776;2023-07-22T03:39:16;100344.34;;;19.08;50.55
72548;BME280;60570;50.848;6.776;2023-07-22T03:40:18;100340.28;;;19.09;50.28
72548;BME280;60570;50.848;6.776;2023-07-22T03:41:21;100338.69;;;19.08;50.47
72548;BME280;60570;50.848;6.776;2023-07-22T03:42:22;100337.06;;;19.07;50.50
72548;BME280;60570;50.848;6.776;2023-07-22T03:43:23;100339.88;;;19.07;50.42
72548;BME280;60570;50.848;6.776;2023-07-22T03:44:24;100341.88;;;19.06;50.55
72548;BME280;60570;50.848;6.776;2023-07-22T03:45:26;100337.06;;;19.07;50.53
72548;BME280;60570;50.848;6.776;2023-07-22T03:46:27;100341.88;;;19.06;50.24
72548;BME280;60570;50.848;6.776;2023-07-22T03:47:28;100340.28;;;19.05;50.57
72548;BME280;60570;50.848;6.776;2023-07-22T03:48:29;100342.28;;;19.05;50.43
72548;BME280;60570;50.848;6.776;2023-07-22T03:49:30;100348.75;;;19.05;50.41
72548;BME280;60570;50.848;6.776;2023-07-22T03:50:31;100353.56;;;19.05;50.59
72548;BME280;60570;50.848;6.776;2023-07-22T03:51:32;100345.50;;;19.03;50.47
72548;BME280;60570;50.848;6.776;2023-07-22T03:52:34;100346.31;;;19.04;50.44
72548;BME280;60570;50.848;6.776;2023-07-22T03:53:34;100350.75;;;19.05;50.49
72548;BME280;60570;50.848;6.776;2023-07-22T03:54:36;100349.56;;;19.06;50.47
72548;BME280;60570;50.848;6.776;2023-07-22T03:55:36;100347.50;;;19.03;50.41
72548;BME280;60570;50.848;6.776;2023-07-22T03:56:40;100351.97;;;19.04;50.31
72548;BME280;60570;50.848;6.776;2023-07-22T03:57:41;100340.69;;;19.04;50.58
72548;BME280;60570;50.848;6.776;2023-07-22T03:58:42;100347.50;;;19.03;50.36
72548;BME280;60570;50.848;6.776;2023-07-22T03:59:43;100348.72;;;19.02;50.31
72548;BME280;60570;50.848;6.776;2023-07-22T04:00:47;100348.72;;;19.02;50.36
72548;BME280;60570;50.848;6.776;2023-07-22T04:01:48;100347.09;;;19.01;50.67
72548;BME280;60570;50.848;6.776;2023-07-22T04:02:49;100348.31;;;19.00;50.56
72548;BME280;60570;50.848;6.776;2023-07-22T04:03:50;100346.69;;;18.99;50.51
72548;BME280;60570;50.848;6.776;2023-07-22T04:04:52;100348.72;;;18.98;50.55
72548;BME280;60570;50.848;6.776;2023-07-22T04:05:53;100351.53;;;18.98;50.29
72548;BME280;60570;50.848;6.776;2023-07-22T04:06:55;100351.53;;;18.98;50.47
72548;BME280;60570;50.848;6.776;2023-07-22T04:07:55;100354.72;;;18.97;50.58
72548;BME280;60570;50.848;6.776;2023-07-22T04:08:57;100342.69;;;18.96;50.58
72548;BME280;60570;50.848;6.776;2023-07-22T04:09:57;100351.13;;;18.96;50.28
72548;BME280;60570;50.848;6.776;2023-07-22T04:10:58;100351.13;;;18.96;50.41
72548;BME280;60570;50.848;6.776;2023-07-22T04:12:01;100354.72;;;18.97;50.42
72548;BME280;60570;50.848;6.776;2023-07-22T04:13:01;100352.72;;;18.97;50.56
72548;BME280;60570;50.848;6.776;2023-07-22T04:14:03;100358.75;;;18.96;50.45
72548;BME280;60570;50.848;6.776;2023-07-22T04:15:04;100349.50;;;18.95;50.25
72548;BME280;60570;50.848;6.776;2023-07-22T04:16:05;100351.13;;;18.96;50.28
72548;BME280;60570;50.848;6.776;2023-07-22T04:17:06;100343.06;;;18.95;50.37
72548;BME280;60570;50.848;6.776;2023-07-22T04:18:07;100348.69;;;18.95;50.17
72548;BME280;60570;50.848;6.776;2023-07-22T04:19:08;100351.50;;;18.95;50.26
72548;BME280;60570;50.848;6.776;2023-07-22T04:20:09;100349.09;;;18.93;50.22
72548;BME280;60570;50.848;6.776;2023-07-22T04:21:10;100347.09;;;18.94;50.39
72548;BME280;60570;50.848;6.776;2023-07-22T04:22:11;100351.91;;;18.93;50.43
72548;BME280;60570;50.848;6.776;2023-07-22T04:23:12;100351.91;;;18.93;50.29
72548;BME280;60570;50.848;6.776;2023-07-22T04:24:13;100347.09;;;18.94;50.30
72548;BME280;60570;50.848;6.776;2023-07-22T04:25:14;100351.91;;;18.93;50.43
72548;BME280;60570;50.848;6.776;2023-07-22T04:26:15;100354.72;;;18.93;50.31
72548;BME280;60570;50.848;6.776;2023-07-22T04:27:17;100355.13;;;18.92;50.37
72548;BME280;60570;50.848;6.776;2023-07-22T04:28:20;100348.69;;;18.91;50.18
72548;BME280;60570;50.848;6.776;2023-07-22T04:29:20;100359.94;;;18.91;50.54
72548;BME280;60570;50.848;6.776;2023-07-22T04:30:22;100343.03;;;18.91;50.25
72548;BME280;60570;50.848;6.776;2023-07-22T04:31:22;100351.06;;;18.89;50.60
72548;BME280;60570;50.848;6.776;2023-07-22T04:32:24;100356.72;;;18.89;50.35
72548;BME280;60570;50.848;6.776;2023-07-22T04:33:25;100341.81;;;18.89;50.47
72548;BME280;60570;50.848;6.776;2023-07-22T04:34:28;100347.06;;;18.90;50.49
72548;BME280;60570;50.848;6.776;2023-07-22T04:35:30;100354.72;;;18.90;50.42
72548;BME280;60570;50.848;6.776;2023-07-22T04:36:32;100353.06;;;18.89;50.34
72548;BME280;60570;50.848;6.776;2023-07-22T04:37:32;100353.06;;;18.89;50.45
72548;BME280;60570;50.848;6.776;2023-07-22T04:38:34;100345.44;;;18.89;50.19
72548;BME280;60570;50.848;6.776;2023-07-22T04:39:34;100349.47;;;18.88;50.22
72548;BME280;60570;50.848;6.776;2023-07-22T04:40:36;100352.28;;;18.88;50.39
72548;BME280;60570;50.848;6.776;2023-07-22T04:41:37;100356.28;;;18.87;50.35
72548;BME280;60570;50.848;6.776;2023-07-22T04:42:41;100359.09;;;18.87;50.42
72548;BME280;60570;50.848;6.776;2023-07-22T04:43:41;100356.69;;;18.86;50.36
72548;BME280;60570;50.848;6.776;2023-07-22T04:44:43;100353.06;;;18.85;50.48
72548;BME280;60570;50.848;6.776;2023-07-22T04:45:44;100352.28;;;18.85;50.34
72548;BME280;60570;50.848;6.776;2023-07-22T04:46:48;100349.47;;;18.85;50.49
72548;BME280;60570;50.848;6.776;2023-07-22T04:47:48;100353.47;;;18.84;50.41
72548;BME280;60570;50.848;6.776;2023-07-22T04:48:50;100347.84;;;18.84;50.49
72548;BME280;60570;50.848;6.776;2023-07-22T04:49:51;100351.06;;;18.82;50.27
72548;BME280;60570;50.848;6.776;2023-07-22T04:50:52;100354.69;;;18.83;50.55
72548;BME280;60570;50.848;6.776;2023-07-22T04:51:53;100347.44;;;18.82;50.25
72548;BME280;60570;50.848;6.776;2023-07-22T04:52:54;100345.81;;;18.81;50.41
72548;BME280;60570;50.848;6.776;2023-07-22T04:53:55;100352.25;;;18.81;50.28
72548;BME280;60570;50.848;6.776;2023-07-22T04:54:56;100346.25;;;18.83;50.33
72548;BME280;60570;50.848;6.776;2023-07-22T04:55:57;100349.44;;;18.81;50.58
72548;BME280;60570;50.848;6.776;2023-07-22T04:56:58;100347.81;;;18.80;50.35
72548;BME280;60570;50.848;6.776;2023-07-22T04:58:01;100344.19;;;18.79;50.44
72548;BME280;60570;50.848;6.776;2023-07-22T04:59:02;100343.00;;;18.81;50.34
72548;BME280;60570;50.848;6.776;2023-07-22T05:00:03;100345.00;;;18.80;50.38
72548;BME280;60570;50.848;6.776;2023-07-22T05:01:05;100341.38;;;18.79;50.71
72548;BME280;60570;50.848;6.776;2023-07-22T05:02:05;100348.22;;;18.78;50.34
72548;BME280;60570;50.848;6.776;2023-07-22T05:03:07;100346.59;;;18.77;50.47
72548;BME280;60570;50.848;6.776;2023-07-22T05:04:07;100346.59;;;18.77;50.49
72548;BME280;60570;50.848;6.776;2023-07-22T05:05:09;100348.59;;;18.77;50.40
72548;BME280;60570;50.848;6.776;2023-07-22T05:06:10;100348.59;;;18.77;50.20
72548;BME280;60570;50.848;6.776;2023-07-22T05:07:11;100347.00;;;18.76;50.39
72548;BME280;60570;50.848;6.776;2023-07-22T05:08:11;100345.00;;;18.76;50.60
72548;BME280;60570;50.848;6.776;2023-07-22T05:09:13;100347.00;;;18.76;50.38
72548;BME280;60570;50.848;6.776;2023-07-22T05:10:13;100352.63;;;18.76;50.54
72548;BME280;60570;50.848;6.776;2023-07-22T05:11:15;100347.81;;;18.76;50.44
72548;BME280;60570;50.848;6.776;2023-07-22T05:12:15;100347.00;;;18.76;50.48
72548;BME280;60570;50.848;6.776;2023-07-22T05:13:18;100347.00;;;18.76;50.24
72548;BME280;60570;50.848;6.776;2023-07-22T05:14:19;100347.00;;;18.76;50.50
72548;BME280;60570;50.848;6.776;2023-07-22T05:15:20;100349.00;;;18.75;50.29
72548;BME280;60570;50.848;6.776;2023-07-22T05:16:21;100349.81;;;18.76;50.49
72548;BME280;60570;50.848;6.776;2023-07-22T05:17:22;100350.22;;;18.74;50.54
72548;BME280;60570;50.848;6.776;2023-07-22T05:18:23;100346.19;;;18.75;50.37
72548;BME280;60570;50.848;6.776;2023-07-22T05:19:23;100350.63;;;18.73;50.47
72548;BME280;60570;50.848;6.776;2023-07-22T05:20:25;100345.00;;;18.73;50.36